createdAt,value
2018-07-30T00:00:38.312Z,99.90
2018-07-30T00:03:06.838Z,99.90
2018-07-30T00:05:34.931Z,99.90
2018-07-30T00:08:03.000Z,99.90
2018-07-30T00:10:31.056Z,99.90
2018-07-30T00:12:59.127Z,99.90
2018-07-30T00:15:27.180Z,99.90
2018-07-30T00:17:55.247Z,99.90
2018-07-30T00:20:23.307Z,99.30
2018-07-30T00:22:51.371Z,99.10
2018-07-30T00:25:19.433Z,99.00
2018-07-30T00:27:47.508Z,99.00
2018-07-30T00:30:15.572Z,99.30
2018-07-30T00:32:43.633Z,99.20
2018-07-30T00:35:11.680Z,99.00
2018-07-30T00:37:39.872Z,99.40
2018-07-30T00:40:11.253Z,99.90
2018-07-30T00:42:39.537Z,99.90
2018-07-30T00:45:07.600Z,99.90
2018-07-30T00:47:35.664Z,99.90
2018-07-30T00:50:03.920Z,99.90
2018-07-30T00:52:31.980Z,99.90
2018-07-30T00:55:00.114Z,99.90
2018-07-30T00:57:28.124Z,99.90
2018-07-30T00:59:56.185Z,99.90
2018-07-30T01:02:24.257Z,99.90
2018-07-30T01:04:52.320Z,99.90
2018-07-30T01:07:20.401Z,99.80
2018-07-30T01:09:48.504Z,99.70
2018-07-30T01:12:16.564Z,99.70
2018-07-30T01:14:44.620Z,99.70
2018-07-30T01:17:12.688Z,99.70
2018-07-30T01:19:40.752Z,99.90
2018-07-30T01:22:08.844Z,99.90
2018-07-30T01:24:36.904Z,99.90
2018-07-30T01:27:04.988Z,99.90
2018-07-30T01:29:33.061Z,99.90
2018-07-30T01:32:01.117Z,99.90
2018-07-30T01:34:29.184Z,99.90
2018-07-30T01:36:57.236Z,99.90
2018-07-30T01:39:25.300Z,99.90
2018-07-30T01:41:53.360Z,99.90
2018-07-30T01:44:21.436Z,99.90
2018-07-30T01:46:49.488Z,99.90
2018-07-30T01:49:17.552Z,99.90
2018-07-30T01:51:45.605Z,99.90
2018-07-30T01:54:13.669Z,99.90
2018-07-30T01:56:41.737Z,99.90
2018-07-30T01:59:09.807Z,99.90
2018-07-30T02:01:37.868Z,99.90
2018-07-30T02:04:06.072Z,99.90
2018-07-30T02:06:34.132Z,99.90
2018-07-30T02:09:02.291Z,99.90
2018-07-30T02:11:30.348Z,99.90
2018-07-30T02:13:58.404Z,99.90
2018-07-30T02:16:26.451Z,99.90
2018-07-30T02:18:54.516Z,99.90
2018-07-30T02:21:22.605Z,99.90
2018-07-30T02:23:50.620Z,99.90
2018-07-30T02:26:18.660Z,99.90
2018-07-30T02:28:46.704Z,99.90
2018-07-30T02:31:14.746Z,99.90
2018-07-30T02:33:42.798Z,99.90
2018-07-30T02:36:10.904Z,99.90
2018-07-30T02:38:38.950Z,99.90
2018-07-30T02:41:06.996Z,99.90
2018-07-30T02:43:35.042Z,99.90
2018-07-30T02:46:03.080Z,99.90
2018-07-30T02:48:31.138Z,99.90
2018-07-30T02:50:59.174Z,99.90
2018-07-30T02:53:27.216Z,99.90
2018-07-30T02:55:55.264Z,99.90
2018-07-30T02:58:23.416Z,99.90
2018-07-30T03:00:51.449Z,99.90
2018-07-30T03:03:19.600Z,99.90
2018-07-30T03:05:47.636Z,99.90
2018-07-30T03:08:15.676Z,99.90
2018-07-30T03:10:43.718Z,99.90
2018-07-30T03:13:11.768Z,99.90
2018-07-30T03:15:39.800Z,99.90
2018-07-30T03:18:07.852Z,99.90
2018-07-30T03:20:35.904Z,99.90
2018-07-30T03:23:03.984Z,99.90
2018-07-30T03:25:32.024Z,99.90
2018-07-30T03:28:00.073Z,99.90
2018-07-30T03:30:28.113Z,99.90
2018-07-30T03:32:56.156Z,99.90
2018-07-30T03:35:24.208Z,99.90
2018-07-30T03:37:52.980Z,99.90
2018-07-30T03:40:21.032Z,99.90
2018-07-30T03:42:49.089Z,99.90
2018-07-30T03:45:17.132Z,99.90
2018-07-30T03:47:45.173Z,99.90
2018-07-30T03:50:15.192Z,99.90
2018-07-30T03:52:43.890Z,99.90
2018-07-30T03:55:11.944Z,99.90
2018-07-30T03:57:40.021Z,99.90
2018-07-30T04:00:09.979Z,99.90
2018-07-30T04:02:37.961Z,99.90
2018-07-30T04:05:06.012Z,99.90
2018-07-30T04:07:34.049Z,99.90
2018-07-30T04:10:02.117Z,99.90
2018-07-30T04:12:30.192Z,99.90
2018-07-30T04:14:58.240Z,99.90
2018-07-30T04:17:26.284Z,99.90
2018-07-30T04:19:54.326Z,99.90
2018-07-30T04:22:22.379Z,99.90
2018-07-30T04:24:50.436Z,99.90
2018-07-30T04:27:18.485Z,99.90
2018-07-30T04:29:46.533Z,99.90
2018-07-30T04:32:14.569Z,99.90
2018-07-30T04:34:42.620Z,99.90
2018-07-30T04:37:10.656Z,99.90
2018-07-30T04:39:38.698Z,99.90
2018-07-30T04:42:06.727Z,99.90
2018-07-30T04:44:34.788Z,99.90
2018-07-30T04:47:02.817Z,99.90
2018-07-30T04:49:30.872Z,99.90
2018-07-30T04:51:58.904Z,99.90
2018-07-30T04:54:26.953Z,99.90
2018-07-30T04:56:55.041Z,99.90
2018-07-30T04:59:23.047Z,99.90
2018-07-30T05:01:51.091Z,99.90
2018-07-30T05:04:19.136Z,99.90
2018-07-30T05:06:47.183Z,99.90
2018-07-30T05:09:15.223Z,99.90
2018-07-30T05:11:43.308Z,99.90
2018-07-30T05:14:11.360Z,99.90
2018-07-30T05:16:39.400Z,99.90
2018-07-30T05:19:07.460Z,99.90
2018-07-30T05:21:35.541Z,99.90
2018-07-30T05:24:03.607Z,99.90
2018-07-30T05:26:31.648Z,99.90
2018-07-30T05:28:59.696Z,99.90
2018-07-30T05:31:28.053Z,99.90
2018-07-30T05:33:56.101Z,99.90
2018-07-30T05:36:24.136Z,99.90
2018-07-30T05:38:52.228Z,99.90
2018-07-30T05:41:20.261Z,99.90
2018-07-30T05:43:48.308Z,99.90
2018-07-30T05:46:16.404Z,99.90
2018-07-30T05:48:44.448Z,99.90
2018-07-30T05:51:12.500Z,99.90
2018-07-30T05:53:41.028Z,99.90
2018-07-30T05:56:09.584Z,99.90
2018-07-30T05:58:37.661Z,99.90
2018-07-30T06:01:05.756Z,99.90
2018-07-30T06:03:33.792Z,99.90
2018-07-30T06:06:01.857Z,99.90
2018-07-30T06:08:29.896Z,99.90
2018-07-30T06:10:57.945Z,99.90
2018-07-30T06:13:25.996Z,99.90
2018-07-30T06:15:54.040Z,99.90
2018-07-30T06:18:22.079Z,99.70
2018-07-30T06:20:50.148Z,99.60
2018-07-30T06:23:18.160Z,99.00
2018-07-30T06:25:46.244Z,98.20
2018-07-30T06:28:14.305Z,97.90
2018-07-30T06:30:42.367Z,96.50
2018-07-30T06:33:10.512Z,94.00
2018-07-30T06:35:38.624Z,92.20
2018-07-30T06:38:06.684Z,90.30
2018-07-30T06:40:34.764Z,85.50
2018-07-30T06:43:02.827Z,80.00
2018-07-30T06:45:30.881Z,75.90
2018-07-30T06:47:58.972Z,72.50
2018-07-30T06:50:26.996Z,67.60
2018-07-30T06:52:55.069Z,63.20
2018-07-30T06:55:23.221Z,62.60
2018-07-30T06:57:51.279Z,62.20
2018-07-30T07:00:19.352Z,60.10
2018-07-30T07:02:47.412Z,59.20
2018-07-30T07:05:20.573Z,57.40
2018-07-30T07:07:48.655Z,57.10
2018-07-30T07:10:16.712Z,56.00
2018-07-30T07:12:44.812Z,56.90
2018-07-30T07:15:13.900Z,56.50
2018-07-30T07:17:42.727Z,56.10
2018-07-30T07:20:10.780Z,56.70
2018-07-30T07:22:38.840Z,56.20
2018-07-30T07:25:07.081Z,56.40
2018-07-30T07:27:35.128Z,56.60
2018-07-30T07:30:03.693Z,55.40
2018-07-30T07:32:31.763Z,56.10
2018-07-30T07:34:59.869Z,56.70
2018-07-30T07:37:27.877Z,57.00
2018-07-30T07:39:55.928Z,57.10
2018-07-30T07:42:23.975Z,58.50
2018-07-30T07:44:52.031Z,57.30
2018-07-30T07:47:20.101Z,57.70
2018-07-30T07:49:48.157Z,59.40
2018-07-30T07:52:16.208Z,58.10
2018-07-30T07:54:44.243Z,58.20
2018-07-30T07:57:12.285Z,59.00
2018-07-30T07:59:40.332Z,57.40
2018-07-30T08:02:08.424Z,56.80
2018-07-30T08:04:36.500Z,57.90
2018-07-30T08:07:04.620Z,58.50
2018-07-30T08:09:32.692Z,59.00
2018-07-30T08:12:00.769Z,59.40
2018-07-30T08:14:28.850Z,58.00
2018-07-30T08:16:56.904Z,56.70
2018-07-30T08:19:25.941Z,57.00
2018-07-30T08:21:53.976Z,57.50
2018-07-30T08:24:22.040Z,57.50
2018-07-30T08:26:50.176Z,57.60
2018-07-30T08:29:18.264Z,56.80
2018-07-30T08:31:46.333Z,57.80
2018-07-30T08:34:14.409Z,57.20
2018-07-30T08:36:42.480Z,57.40
2018-07-30T08:39:11.248Z,58.20
2018-07-30T08:41:39.314Z,58.20
2018-07-30T08:44:07.527Z,58.00
2018-07-30T08:46:35.580Z,60.10
2018-07-30T08:49:03.653Z,57.80
2018-07-30T08:51:31.720Z,56.70
2018-07-30T08:53:59.961Z,58.20
2018-07-30T08:56:28.092Z,59.30
2018-07-30T08:58:56.084Z,58.20
2018-07-30T09:01:24.136Z,56.90
2018-07-30T09:03:52.208Z,55.00
2018-07-30T09:06:20.272Z,55.60
2018-07-30T09:08:48.336Z,55.60
2018-07-30T09:11:16.391Z,53.40
2018-07-30T09:13:44.457Z,54.80
2018-07-30T09:16:12.513Z,55.00
2018-07-30T09:18:40.581Z,56.30
2018-07-30T09:21:08.647Z,54.00
2018-07-30T09:23:36.704Z,54.30
2018-07-30T09:26:04.808Z,52.20
2018-07-30T09:28:32.872Z,52.50
2018-07-30T09:31:00.936Z,51.90
2018-07-30T09:33:29.516Z,54.30
2018-07-30T09:35:57.580Z,52.40
2018-07-30T09:38:25.892Z,53.30
2018-07-30T09:40:53.985Z,50.80
2018-07-30T09:43:22.148Z,50.70
2018-07-30T09:45:50.317Z,51.80
2018-07-30T09:48:18.376Z,51.40
2018-07-30T09:50:46.451Z,51.40
2018-07-30T09:53:14.508Z,52.10
2018-07-30T09:55:42.698Z,51.20
2018-07-30T09:58:10.758Z,51.00
2018-07-30T10:00:44.248Z,50.30
2018-07-30T10:03:12.318Z,51.10
2018-07-30T10:05:40.395Z,50.10
2018-07-30T10:08:08.452Z,48.10
2018-07-30T10:10:36.515Z,48.90
2018-07-30T10:13:04.568Z,48.40
2018-07-30T10:15:32.636Z,51.20
2018-07-30T10:20:28.637Z,48.70
2018-07-30T10:22:56.715Z,50.20
2018-07-30T10:25:24.760Z,50.50
2018-07-30T10:27:52.828Z,47.40
2018-07-30T10:30:20.908Z,48.60
2018-07-30T10:32:48.965Z,50.20
2018-07-30T10:35:17.040Z,46.50
2018-07-30T10:37:45.107Z,46.70
2018-07-30T10:40:13.165Z,46.90
2018-07-30T10:42:41.216Z,46.60
2018-07-30T10:45:09.291Z,47.30
2018-07-30T10:47:37.348Z,45.90
2018-07-30T10:50:05.412Z,46.30
2018-07-30T10:52:33.468Z,46.70
2018-07-30T10:55:01.529Z,45.90
2018-07-30T10:57:29.598Z,46.70
2018-07-30T10:59:57.652Z,45.80
2018-07-30T11:02:25.711Z,46.40
2018-07-30T11:04:53.791Z,44.80
2018-07-30T11:07:21.852Z,44.20
2018-07-30T11:09:50.068Z,42.40
2018-07-30T11:12:18.143Z,43.40
2018-07-30T11:14:46.266Z,45.10
2018-07-30T11:17:14.309Z,44.10
2018-07-30T11:19:42.372Z,45.40
2018-07-30T11:22:10.436Z,43.30
2018-07-30T11:24:39.296Z,42.70
2018-07-30T11:27:07.335Z,45.90
2018-07-30T11:29:36.214Z,44.20
2018-07-30T11:32:04.268Z,42.80
2018-07-30T11:34:32.333Z,43.30
2018-07-30T11:37:00.396Z,42.90
2018-07-30T11:39:28.474Z,42.30
2018-07-30T11:41:56.532Z,43.00
2018-07-30T11:44:24.601Z,40.80
2018-07-30T11:46:52.672Z,43.40
2018-07-30T11:49:20.732Z,40.50
2018-07-30T11:51:48.796Z,40.80
2018-07-30T11:54:16.867Z,41.70
2018-07-30T11:56:44.925Z,41.30
2018-07-30T11:59:12.984Z,41.20
2018-07-30T12:01:41.375Z,42.10
2018-07-30T12:06:37.253Z,40.50
2018-07-30T12:09:06.368Z,39.20
2018-07-30T12:11:34.411Z,40.70
2018-07-30T12:14:02.457Z,43.50
2018-07-30T12:16:30.513Z,41.10
2018-07-30T12:18:58.539Z,40.40
2018-07-30T12:21:26.579Z,41.50
2018-07-30T12:23:54.623Z,41.40
2018-07-30T12:26:22.669Z,39.80
2018-07-30T12:28:50.716Z,39.90
2018-07-30T12:31:18.760Z,40.50
2018-07-30T12:33:46.801Z,39.40
2018-07-30T12:36:14.877Z,39.40
2018-07-30T12:38:43.698Z,39.70
2018-07-30T12:41:11.923Z,38.30
2018-07-30T12:46:07.782Z,36.90
2018-07-30T12:48:35.819Z,38.00
2018-07-30T12:51:03.956Z,40.20
2018-07-30T12:53:32.060Z,40.70
2018-07-30T12:56:00.107Z,37.50
2018-07-30T12:58:28.400Z,36.60
2018-07-30T13:00:56.452Z,37.50
2018-07-30T13:03:24.525Z,38.20
2018-07-30T13:05:52.589Z,40.10
2018-07-30T13:08:20.678Z,42.60
2018-07-30T13:10:48.738Z,36.40
2018-07-30T13:13:16.820Z,35.80
2018-07-30T13:18:12.900Z,36.40
2018-07-30T13:20:41.024Z,37.20
2018-07-30T13:23:09.080Z,36.10
2018-07-30T13:25:37.570Z,35.80
2018-07-30T13:28:06.062Z,35.00
2018-07-30T13:30:34.125Z,34.10
2018-07-30T13:33:02.188Z,34.50
2018-07-30T13:35:30.252Z,33.70
2018-07-30T13:37:58.475Z,35.40
2018-07-30T13:40:26.535Z,36.70
2018-07-30T13:42:54.744Z,34.10
2018-07-30T13:45:22.820Z,35.20
2018-07-30T13:47:50.888Z,34.00
2018-07-30T13:50:18.944Z,35.00
2018-07-30T13:52:47.406Z,34.40
2018-07-30T13:55:15.460Z,36.50
2018-07-30T13:57:43.526Z,35.60
2018-07-30T14:00:11.876Z,35.90
2018-07-30T14:02:40.276Z,36.10
2018-07-30T14:05:09.164Z,34.80
2018-07-30T14:07:37.240Z,35.00
2018-07-30T14:10:06.156Z,36.50
2018-07-30T14:12:34.216Z,36.60
2018-07-30T14:15:02.478Z,35.80
2018-07-30T14:17:30.544Z,36.50
2018-07-30T14:19:58.608Z,36.40
2018-07-30T14:22:26.704Z,37.00
2018-07-30T14:24:54.767Z,38.90
2018-07-30T14:27:22.964Z,37.50
2018-07-30T14:29:51.029Z,37.70
2018-07-30T14:32:19.092Z,39.40
2018-07-30T14:34:47.203Z,40.60
2018-07-30T14:37:15.272Z,40.60
2018-07-30T14:39:43.341Z,37.60
2018-07-30T14:42:11.437Z,38.00
2018-07-30T14:44:39.479Z,38.20
2018-07-30T14:47:07.564Z,37.60
2018-07-30T14:49:35.647Z,37.30
2018-07-30T14:52:03.933Z,35.90
2018-07-30T14:54:32.096Z,35.60
2018-07-30T14:57:00.196Z,37.20
2018-07-30T14:59:28.299Z,37.20
2018-07-30T15:01:56.360Z,36.80
2018-07-30T15:04:24.462Z,38.30
2018-07-30T15:06:52.550Z,40.60
2018-07-30T15:09:20.632Z,41.70
2018-07-30T15:11:48.744Z,40.50
2018-07-30T15:14:16.811Z,41.30
2018-07-30T15:16:44.892Z,40.40
2018-07-30T15:19:12.968Z,39.60
2018-07-30T15:21:41.024Z,39.10
2018-07-30T15:24:09.076Z,38.10
2018-07-30T15:26:37.156Z,38.60
2018-07-30T15:29:05.232Z,39.30
2018-07-30T15:31:33.285Z,37.60
2018-07-30T15:34:01.349Z,39.20
2018-07-30T15:36:29.408Z,38.40
2018-07-30T15:38:57.480Z,41.30
2018-07-30T15:41:25.557Z,41.80
2018-07-30T15:43:53.656Z,41.60
2018-07-30T15:46:21.676Z,41.30
2018-07-30T15:48:49.735Z,42.40
2018-07-30T15:51:17.789Z,42.50
2018-07-30T15:53:45.901Z,41.80
2018-07-30T15:56:13.911Z,42.20
2018-07-30T15:58:42.092Z,41.80
2018-07-30T16:01:10.148Z,41.10
2018-07-30T16:03:38.194Z,42.00
2018-07-30T16:06:06.261Z,42.70
2018-07-30T16:08:34.306Z,42.90
2018-07-30T16:11:02.354Z,45.20
2018-07-30T16:13:30.636Z,44.30
2018-07-30T16:15:58.696Z,42.70
2018-07-30T16:18:26.732Z,43.60
2018-07-30T16:20:54.956Z,43.00
2018-07-30T16:23:23.113Z,42.50
2018-07-30T16:25:51.044Z,41.80
2018-07-30T16:28:19.219Z,42.00
2018-07-30T16:30:47.328Z,42.40
2018-07-30T16:33:15.336Z,42.40
2018-07-30T16:35:43.368Z,42.20
2018-07-30T16:38:11.421Z,43.00
2018-07-30T16:40:39.460Z,42.10
2018-07-30T16:43:07.528Z,41.50
2018-07-30T16:45:35.571Z,43.60
2018-07-30T16:48:03.828Z,44.10
2018-07-30T16:50:31.856Z,43.10
2018-07-30T16:52:59.901Z,43.10
2018-07-30T16:55:27.927Z,43.90
2018-07-30T16:57:55.992Z,41.90
2018-07-30T17:00:24.024Z,41.80
2018-07-30T17:02:52.076Z,42.20
2018-07-30T17:05:20.162Z,42.40
2018-07-30T17:07:48.352Z,41.20
2018-07-30T17:10:16.660Z,42.70
2018-07-30T17:12:44.704Z,43.70
2018-07-30T17:15:12.752Z,43.20
2018-07-30T17:17:40.821Z,43.90
2018-07-30T17:20:11.145Z,45.00
2018-07-30T17:22:39.626Z,44.00
2018-07-30T17:25:07.820Z,44.50
2018-07-30T17:27:35.864Z,44.90
2018-07-30T17:30:04.632Z,45.00
2018-07-30T17:32:32.724Z,45.60
2018-07-30T17:35:00.995Z,46.70
2018-07-30T17:37:29.032Z,46.80
2018-07-30T17:39:57.081Z,46.60
2018-07-30T17:42:25.152Z,46.30
2018-07-30T17:44:53.420Z,46.20
2018-07-30T17:47:21.471Z,46.50
2018-07-30T17:49:49.531Z,46.40
2018-07-30T17:52:17.600Z,47.30
2018-07-30T17:54:45.664Z,50.00
2018-07-30T17:57:13.712Z,49.50
2018-07-30T17:59:41.795Z,53.10
2018-07-30T18:04:37.748Z,57.80
2018-07-30T18:07:05.784Z,59.90
2018-07-30T18:09:33.860Z,61.70
2018-07-30T18:12:01.929Z,60.40
2018-07-30T18:14:29.968Z,61.60
2018-07-30T18:16:58.004Z,60.50
2018-07-30T18:19:26.049Z,61.80
2018-07-30T18:21:55.029Z,61.90
2018-07-30T18:24:23.170Z,62.90
2018-07-30T18:26:51.160Z,64.30
2018-07-30T18:29:19.209Z,64.30
2018-07-30T18:31:47.256Z,64.50
2018-07-30T18:34:15.303Z,64.20
2018-07-30T18:36:43.352Z,66.80
2018-07-30T18:39:11.388Z,68.40
2018-07-30T18:41:39.416Z,68.90
2018-07-30T18:44:07.484Z,69.40
2018-07-30T18:46:35.636Z,68.50
2018-07-30T18:49:03.680Z,68.00
2018-07-30T18:51:31.708Z,67.60
2018-07-30T18:53:59.763Z,69.10
2018-07-30T18:56:27.854Z,68.80
2018-07-30T18:58:56.191Z,68.50
2018-07-30T19:01:24.239Z,68.40
2018-07-30T19:03:52.592Z,68.60
2018-07-30T19:06:20.635Z,69.20
2018-07-30T19:08:48.684Z,69.90
2018-07-30T19:13:44.669Z,69.80
2018-07-30T19:16:12.746Z,70.10
2018-07-30T19:18:40.748Z,70.20
2018-07-30T19:21:08.802Z,70.30
2018-07-30T19:23:36.887Z,70.10
2018-07-30T19:26:04.941Z,71.10
2018-07-30T19:28:32.980Z,72.70
2018-07-30T19:31:01.081Z,72.80
2018-07-30T19:33:29.132Z,72.00
2018-07-30T19:35:57.196Z,73.00
2018-07-30T19:38:25.242Z,72.60
2018-07-30T19:40:53.520Z,72.90
2018-07-30T19:43:21.696Z,74.00
2018-07-30T19:45:49.760Z,72.80
2018-07-30T19:48:17.848Z,72.70
2018-07-30T19:50:45.891Z,72.70
2018-07-30T19:53:13.932Z,74.10
2018-07-30T19:55:42.009Z,75.80
2018-07-30T19:58:10.425Z,76.00
2018-07-30T20:00:38.208Z,75.10
2018-07-30T20:03:06.297Z,74.60
2018-07-30T20:05:34.376Z,73.40
2018-07-30T20:08:02.441Z,73.80
2018-07-30T20:10:30.512Z,75.60
2018-07-30T20:12:58.627Z,74.60
2018-07-30T20:15:26.700Z,75.10
2018-07-30T20:17:54.897Z,76.80
2018-07-30T20:20:22.941Z,78.20
2018-07-30T20:22:51.426Z,81.20
2018-07-30T20:25:20.084Z,84.50
2018-07-30T20:27:48.143Z,84.80
2018-07-30T20:30:16.224Z,84.30
2018-07-30T20:32:44.289Z,84.70
2018-07-30T20:35:12.364Z,83.50
2018-07-30T20:37:40.437Z,84.20
2018-07-30T20:40:08.512Z,85.00
2018-07-30T20:42:36.572Z,84.80
2018-07-30T20:45:04.890Z,86.00
2018-07-30T20:47:32.956Z,85.20
2018-07-30T20:50:01.027Z,85.10
2018-07-30T20:52:29.093Z,86.50
2018-07-30T20:54:57.168Z,85.60
2018-07-30T20:57:25.254Z,84.80
2018-07-30T20:59:53.312Z,84.80
2018-07-30T21:02:21.389Z,85.00
2018-07-30T21:07:17.351Z,86.70
2018-07-30T21:09:45.420Z,88.50
2018-07-30T21:12:13.484Z,88.50
2018-07-30T21:14:41.552Z,90.00
2018-07-30T21:17:09.723Z,89.80
2018-07-30T21:19:37.804Z,90.00
2018-07-30T21:22:05.928Z,90.10
2018-07-30T21:24:33.984Z,90.50
2018-07-30T21:27:02.057Z,90.80
2018-07-30T21:29:30.116Z,91.20
2018-07-30T21:31:58.352Z,91.50
2018-07-30T21:34:26.420Z,92.20
2018-07-30T21:36:54.527Z,92.10
2018-07-30T21:39:22.599Z,92.40
2018-07-30T21:41:50.694Z,92.50
2018-07-30T21:44:18.714Z,92.30
2018-07-30T21:46:46.784Z,92.40
2018-07-30T21:49:14.843Z,92.60
2018-07-30T21:51:42.909Z,93.10
2018-07-30T21:54:10.984Z,93.20
2018-07-30T21:56:39.040Z,93.00
2018-07-30T21:59:07.092Z,92.80
2018-07-30T22:01:35.181Z,92.50
2018-07-30T22:04:03.291Z,91.70
2018-07-30T22:06:31.340Z,92.10
2018-07-30T22:09:00.204Z,93.80
2018-07-30T22:11:28.261Z,93.90
2018-07-30T22:13:56.317Z,94.70
2018-07-30T22:16:24.356Z,94.40
2018-07-30T22:18:52.740Z,93.80
2018-07-30T22:21:20.820Z,93.30
2018-07-30T22:23:48.884Z,93.20
2018-07-30T22:26:16.931Z,93.00
2018-07-30T22:28:44.968Z,93.00
2018-07-30T22:31:13.016Z,92.80
2018-07-30T22:33:41.073Z,92.70
2018-07-30T22:36:09.123Z,92.50
2018-07-30T22:38:37.164Z,92.50
2018-07-30T22:41:05.360Z,92.80
2018-07-30T22:43:33.397Z,93.30
2018-07-30T22:46:01.444Z,93.60
2018-07-30T22:48:29.520Z,94.50
2018-07-30T22:50:57.576Z,94.30
2018-07-30T22:53:25.615Z,96.40
2018-07-30T22:55:53.664Z,95.90
2018-07-30T22:58:21.709Z,95.50
2018-07-30T23:00:49.750Z,95.60
2018-07-30T23:03:17.835Z,95.50
2018-07-30T23:05:45.872Z,95.80
2018-07-30T23:08:13.927Z,95.70
2018-07-30T23:10:41.964Z,95.70
2018-07-30T23:13:10.029Z,95.50
2018-07-30T23:15:38.061Z,95.30
2018-07-30T23:18:06.100Z,95.00
2018-07-30T23:20:34.140Z,95.20
2018-07-30T23:23:02.188Z,95.00
2018-07-30T23:25:30.225Z,95.40
2018-07-30T23:27:58.276Z,95.70
2018-07-30T23:30:26.322Z,95.70
2018-07-30T23:32:54.368Z,96.60
2018-07-30T23:37:50.444Z,98.40
2018-07-30T23:40:18.483Z,98.70
2018-07-30T23:42:46.532Z,98.40
2018-07-30T23:45:14.575Z,99.00
2018-07-30T23:50:10.516Z,99.30
2018-07-30T23:52:38.590Z,98.80
2018-07-30T23:55:06.647Z,99.10
2018-07-30T23:57:34.640Z,98.90
